Miami Beach, Florida
Current Conditions -  °F | °C
As of 9:53 PM on Sunday 21 Dec 2014 (Local Time) from KMIA Reporting Station
Overcast Overcast  
Wind Chill: 72°   Ceiling: 12000
Heat Index: 72°   Visibility: 10mi
Dew Point: 65°   Wind: 6mph
Humidity: 78%   Direction: 120°ESE
Pressure: 30.05"   Gusts: NA
Location:  25.81°N, 80.13°W
Report Text: KMIA 220253Z 12005KT 10SM BKN120 OVC250 22/18 A3005 RMK AO2 SLP175 T02220183 55001
Loading
Personal Weather Stations






























Interactive Weather Map New forecast layout! Learn more

10-Day Weather Forecast

Advertisements
Track Severe Weather on mobile